Accueil
METAR-TAF:

METAR-TAF

Aéroports :

Aérodrome de Katima Mulilo-Mpacha

Katima Mulilo, Namibie

latitude: 17-38-04S, longitude: 024-10-36E, altitude: 985 m

Observation

Le bulletin a été fait il y a 1 heure et 19 minutes, à 12:00 UTC
Vent 7 kt de est/sud-est
Température 26°C
Humidité 16%
Pression 1022 hPa
Visibilité 10 km ou plus
pas de nuages en-dessous de 1500 mètres et pas de cumulonimbus.

METAR: FYKM 141200Z 11007KT CAVOK 26/M02 Q1022

Heure: 15:19 (13:19 UTC)

Prévision

Le bulletin a été fait il y a 2 heures et 19 minutes, à 11:00 UTC
Prévision valable du 14 à 12 UTC au 14 à 21 UTC
Vent 10 kt de est
Visibilité 10 km ou plus
pas de nuages en-dessous de 1500 mètres et pas de cumulonimbus.

TAF: FYKM 141100Z 1412/1421 09010KT CAVOK

Observations et prévisions météorologiques de plus de 4000 aéroports (messages METAR et TAF).

Les stations disponibles sont représentées par des disques jaunes et rouges sur la carte.

Passer la souris dessus pour voir le nom de la station.

Cliquer dessus pour voir les observations et prévisions météorologiques.

Pour changer de carte: cliquez sur les boutons verts avec une croix noire pour zoomer, sur le bouton vert avec un tiret pour effectuer un zoom arrière, ou sur les flèches vertes pour les cartes adjacentes.


METAR-TAF: